Time;durP1;ratioP1;P1;durP2;ratioP2;P2;SDS_P1;SDS_P2;PMS_P1;PMS_P2;Temp;Humidity;BMP_temperature;BMP_pressure;BME280_temperature;BME280_humidity;BME280_pressure;Samples;Min_cycle;Max_cycle;Signal;HPM_P1;HPM_P2
2022/09/14 00:00:21;;;;;;;12.40;9.40;;;13.50;99.90;;;;;;5029988;28;20041;-79
2022/09/14 00:02:47;;;;;;;10.57;8.43;;;13.40;99.90;;;;;;5028490;28;20170;-77
2022/09/14 00:05:13;;;;;;;12.02;8.95;;;13.40;99.90;;;;;;5029942;28;20124;-77
2022/09/14 00:07:38;;;;;;;11.45;7.65;;;13.40;99.90;;;;;;5033267;28;20030;-77
2022/09/14 00:10:05;;;;;;;9.50;8.20;;;13.50;99.90;;;;;;5032156;28;20478;-77
2022/09/14 00:12:30;;;;;;;8.75;7.72;;;13.50;99.90;;;;;;5033307;28;20029;-78
2022/09/14 00:14:56;;;;;;;11.43;8.18;;;13.50;99.90;;;;;;5033200;28;20077;-77
2022/09/14 00:17:22;;;;;;;8.90;7.40;;;13.50;99.90;;;;;;5031975;28;20497;-76
2022/09/14 00:19:47;;;;;;;9.65;7.22;;;13.50;99.90;;;;;;5031990;28;20504;-78
2022/09/14 00:22:13;;;;;;;10.13;7.60;;;13.50;99.90;;;;;;5051792;28;20416;-77
2022/09/14 00:24:38;;;;;;;9.57;7.20;;;13.50;99.90;;;;;;5051726;28;20104;-78
2022/09/14 00:27:04;;;;;;;9.68;7.90;;;13.50;99.90;;;;;;5051693;28;20040;-77
2022/09/14 00:29:30;;;;;;;8.40;6.65;;;13.50;99.90;;;;;;5051633;28;20025;-78
2022/09/14 00:31:56;;;;;;;8.10;7.30;;;13.50;99.90;;;;;;5053017;28;20430;-77
2022/09/14 00:34:22;;;;;;;8.05;7.25;;;13.50;99.90;;;;;;5052828;28;20494;-77
2022/09/14 00:36:49;;;;;;;10.00;7.15;;;13.50;99.90;;;;;;5052794;28;20474;-78
2022/09/14 00:39:20;;;;;;;8.13;7.30;;;13.50;99.90;;;;;;5052695;28;20026;-77
2022/09/14 00:41:48;;;;;;;10.07;8.23;;;13.50;99.90;;;;;;5052913;28;20021;-77
2022/09/14 00:44:13;;;;;;;9.85;7.65;;;13.40;99.90;;;;;;5052685;28;20021;-78
2022/09/14 00:46:44;;;;;;;9.25;7.72;;;13.40;99.90;;;;;;5047486;28;20025;-77
2022/09/14 00:49:15;;;;;;;9.90;8.40;;;13.40;99.90;;;;;;5032763;28;20526;-77
2022/09/14 00:51:46;;;;;;;9.07;7.40;;;13.40;99.90;;;;;;5032795;28;20037;-77
2022/09/14 00:54:12;;;;;;;11.48;7.65;;;13.40;99.90;;;;;;5031243;28;20542;-79
2022/09/14 00:56:41;;;;;;;15.27;8.15;;;13.40;99.90;;;;;;5032466;28;20108;-77
2022/09/14 00:59:20;;;;;;;9.18;8.15;;;13.30;99.90;;;;;;5030998;28;20437;-79
2022/09/14 01:01:46;;;;;;;10.38;7.50;;;13.30;99.90;;;;;;5031386;28;20021;-77
2022/09/14 01:04:11;;;;;;;11.98;8.27;;;13.30;99.90;;;;;;5031199;28;20044;-78
2022/09/14 01:06:59;;;;;;;10.88;8.52;;;13.20;99.90;;;;;;5032356;28;20471;-79
2022/09/14 01:09:42;;;;;;;11.00;8.63;;;13.20;99.90;;;;;;5032108;28;20026;-77
2022/09/14 01:12:20;;;;;;;11.02;7.82;;;13.20;99.90;;;;;;5037420;28;20025;-77
2022/09/14 01:15:24;;;;;;;10.23;8.68;;;13.20;99.90;;;;;;5051135;28;20128;-79
2022/09/14 01:17:58;;;;;;;11.48;8.18;;;13.10;99.90;;;;;;5052397;28;20136;-77
2022/09/14 01:20:38;;;;;;;10.23;7.75;;;13.10;99.90;;;;;;5048250;28;20028;-78
2022/09/14 01:23:15;;;;;;;10.00;8.30;;;13.10;99.90;;;;;;5030040;28;20048;-79
2022/09/14 01:26:06;;;;;;;11.73;8.48;;;13.00;99.90;;;;;;5032536;28;20105;-77
2022/09/14 01:28:40;;;;;;;12.23;8.40;;;13.00;99.90;;;;;;5030815;28;20051;-79
2022/09/14 01:31:15;;;;;;;10.65;8.57;;;13.00;99.90;;;;;;5030997;28;20102;-79
2022/09/14 01:33:52;;;;;;;14.50;8.57;;;12.90;99.90;;;;;;5031834;28;20044;-77
2022/09/14 01:36:19;;;;;;;15.35;8.82;;;13.00;99.90;;;;;;5031003;28;20026;-79
2022/09/14 01:38:48;;;;;;;13.90;9.88;;;12.90;99.90;;;;;;5032128;28;20371;-78
2022/09/14 01:41:19;;;;;;;14.98;9.35;;;12.90;99.90;;;;;;5030819;28;20017;-79
2022/09/14 01:43:53;;;;;;;11.45;7.78;;;12.90;99.90;;;;;;5030507;28;20017;-77
2022/09/14 01:46:37;;;;;;;8.80;7.25;;;12.90;99.90;;;;;;5030675;28;20116;-78
2022/09/14 01:49:29;;;;;;;11.27;8.00;;;12.90;99.90;;;;;;5031944;28;20398;-79
2022/09/14 01:52:01;;;;;;;9.85;7.88;;;12.90;99.90;;;;;;5030570;28;20060;-79
2022/09/14 01:54:36;;;;;;;8.85;7.75;;;12.90;99.90;;;;;;5030500;28;20036;-79
2022/09/14 01:57:14;;;;;;;13.13;8.07;;;12.90;99.90;;;;;;5031834;28;20022;-79
2022/09/14 01:59:43;;;;;;;10.48;7.50;;;12.90;99.90;;;;;;5031795;28;20046;-77
2022/09/14 02:02:24;;;;;;;9.23;7.72;;;12.80;99.90;;;;;;5031778;28;20078;-77
2022/09/14 02:05:00;;;;;;;9.32;7.15;;;12.80;99.90;;;;;;5030440;28;20025;-78
2022/09/14 02:07:26;;;;;;;10.48;7.80;;;12.80;99.90;;;;;;5031686;28;20014;-77
2022/09/14 02:09:53;;;;;;;10.85;8.60;;;12.80;99.90;;;;;;5030222;28;20032;-78
2022/09/14 02:12:19;;;;;;;12.00;8.43;;;12.80;99.90;;;;;;5030191;28;20014;-79
2022/09/14 02:14:45;;;;;;;9.25;8.32;;;12.80;99.90;;;;;;5030182;28;20451;-78
2022/09/14 02:17:12;;;;;;;13.20;8.98;;;12.70;99.90;;;;;;5030284;28;20014;-77
2022/09/14 02:19:46;;;;;;;12.25;8.93;;;12.60;99.90;;;;;;5031418;28;20029;-79
2022/09/14 02:22:12;;;;;;;10.85;9.63;;;12.50;99.90;;;;;;5049189;28;20034;-79
2022/09/14 02:24:38;;;;;;;11.60;8.75;;;12.50;99.90;;;;;;5051182;28;20112;-79
2022/09/14 02:27:05;;;;;;;14.27;10.20;;;12.40;99.90;;;;;;5050826;28;20049;-79
2022/09/14 02:29:31;;;;;;;12.38;9.63;;;12.40;99.90;;;;;;5050729;28;20037;-77
2022/09/14 02:32:06;;;;;;;11.43;9.10;;;12.40;99.90;;;;;;5051035;28;20021;-77
2022/09/14 02:34:41;;;;;;;11.55;8.50;;;12.30;99.90;;;;;;5050948;28;20041;-79
2022/09/14 02:37:18;;;;;;;13.18;8.73;;;12.30;99.90;;;;;;5051086;28;20419;-78
2022/09/14 02:40:09;;;;;;;11.48;9.25;;;12.20;99.90;;;;;;5051011;28;20085;-78
2022/09/14 02:43:01;;;;;;;14.77;8.70;;;12.20;99.90;;;;;;5050919;28;20478;-77
2022/09/14 02:45:53;;;;;;;10.85;8.98;;;12.10;99.90;;;;;;5058679;28;20033;-77
2022/09/14 02:48:44;;;;;;;11.45;7.82;;;12.00;99.90;;;;;;5031431;28;20378;-78
2022/09/14 02:51:31;;;;;;;10.70;8.73;;;12.00;99.90;;;;;;5031026;28;20033;-77
2022/09/14 02:54:04;;;;;;;10.82;8.40;;;12.00;99.90;;;;;;5029493;28;20498;-77
2022/09/14 02:56:31;;;;;;;10.07;7.88;;;11.90;99.90;;;;;;5030856;28;20654;-78
2022/09/14 02:58:57;;;;;;;10.23;7.72;;;11.90;99.90;;;;;;5029509;28;20046;-78
2022/09/14 03:01:23;;;;;;;11.15;8.00;;;11.90;99.90;;;;;;5030656;27;20020;-79
2022/09/14 03:03:49;;;;;;;11.20;7.97;;;11.90;99.90;;;;;;5030546;28;20022;-78
2022/09/14 03:06:15;;;;;;;11.68;8.73;;;11.80;99.90;;;;;;5030847;28;20041;-79
2022/09/14 03:08:42;;;;;;;11.85;8.48;;;11.80;99.90;;;;;;5030856;28;20466;-77
2022/09/14 03:11:08;;;;;;;14.48;9.25;;;11.80;99.90;;;;;;5030783;28;20026;-78
2022/09/14 03:13:34;;;;;;;9.18;7.65;;;11.80;99.90;;;;;;5030607;28;20543;-77
2022/09/14 03:16:08;;;;;;;14.95;9.15;;;11.80;99.90;;;;;;5029394;28;20021;-79
2022/09/14 03:18:34;;;;;;;11.82;8.93;;;11.70;99.90;;;;;;5030566;28;20547;-77
2022/09/14 03:21:08;;;;;;;12.02;8.43;;;11.70;99.90;;;;;;5040106;28;20025;-78
2022/09/14 03:23:39;;;;;;;14.10;8.65;;;11.60;99.90;;;;;;5050450;28;20048;-77
2022/09/14 03:26:09;;;;;;;16.92;9.70;;;11.60;99.90;;;;;;5049121;28;20017;-79
2022/09/14 03:28:36;;;;;;;18.77;11.63;;;11.50;99.90;;;;;;5050391;28;20029;-79
2022/09/14 03:31:04;;;;;;;20.40;9.77;;;11.40;99.90;;;;;;5050358;28;20056;-78
2022/09/14 03:33:30;;;;;;;17.20;10.65;;;11.40;99.90;;;;;;5048994;28;20044;-77
2022/09/14 03:35:56;;;;;;;14.18;10.05;;;11.40;99.90;;;;;;5050342;28;20021;-78
2022/09/14 03:38:23;;;;;;;16.90;10.57;;;11.40;99.90;;;;;;5049094;28;20028;-79
2022/09/14 03:40:48;;;;;;;15.32;9.80;;;11.40;99.90;;;;;;5050269;28;20017;-77
2022/09/14 03:43:14;;;;;;;13.23;9.55;;;11.40;99.90;;;;;;5050550;28;20021;-78
2022/09/14 03:45:41;;;;;;;11.73;9.57;;;11.40;99.90;;;;;;5048868;28;20024;-79
2022/09/14 03:48:06;;;;;;;13.45;10.73;;;11.30;99.90;;;;;;5032051;28;20018;-79
2022/09/14 03:50:32;;;;;;;11.50;9.90;;;11.30;99.90;;;;;;5029071;28;20627;-79
2022/09/14 03:52:58;;;;;;;10.15;8.07;;;11.20;99.90;;;;;;5028987;28;20539;-79
2022/09/14 03:55:24;;;;;;;9.57;7.32;;;11.20;99.90;;;;;;5028850;28;20056;-79
2022/09/14 03:57:54;;;;;;;11.10;8.15;;;11.20;99.90;;;;;;5030242;28;20022;-77
2022/09/14 04:00:19;;;;;;;11.85;8.73;;;11.20;99.90;;;;;;5030284;28;20405;-77
2022/09/14 04:02:45;;;;;;;10.75;8.27;;;11.20;99.90;;;;;;5028833;28;20029;-78
2022/09/14 04:05:11;;;;;;;13.38;9.02;;;11.10;99.90;;;;;;5030211;28;20356;-77
2022/09/14 04:07:36;;;;;;;13.50;8.85;;;11.20;99.90;;;;;;5029975;28;20030;-77
2022/09/14 04:10:04;;;;;;;11.55;8.90;;;11.20;99.90;;;;;;5028872;28;20029;-79
2022/09/14 04:12:36;;;;;;;15.20;8.77;;;11.20;99.90;;;;;;5029927;28;20101;-76
2022/09/14 04:15:03;;;;;;;15.25;8.77;;;11.20;99.90;;;;;;5028657;28;20028;-77
2022/09/14 04:17:28;;;;;;;11.25;8.43;;;11.20;99.90;;;;;;5029776;28;20018;-79
2022/09/14 04:19:54;;;;;;;15.38;8.80;;;11.20;99.90;;;;;;5029498;28;20025;-77
2022/09/14 04:22:20;;;;;;;12.00;8.80;;;11.20;99.90;;;;;;5048290;28;20029;-79
2022/09/14 04:24:46;;;;;;;14.70;9.02;;;11.20;99.90;;;;;;5048405;28;20029;-78
2022/09/14 04:27:12;;;;;;;12.75;8.70;;;11.20;99.90;;;;;;5048245;28;20021;-78
2022/09/14 04:29:38;;;;;;;12.25;8.18;;;11.10;99.90;;;;;;5048409;28;20078;-78
2022/09/14 04:32:03;;;;;;;12.13;7.88;;;11.20;99.90;;;;;;5029433;28;20018;-79
2022/09/14 04:34:29;;;;;;;15.48;9.68;;;11.20;99.90;;;;;;5028193;28;20164;-76
2022/09/14 04:36:55;;;;;;;11.27;8.98;;;11.20;99.90;;;;;;5043022;28;20021;-79
2022/09/14 04:39:21;;;;;;;13.30;8.70;;;11.20;99.90;;;;;;5044393;28;20040;-77
2022/09/14 04:41:47;;;;;;;13.73;8.55;;;11.30;99.90;;;;;;5040767;28;20056;-78
2022/09/14 04:44:13;;;;;;;13.07;8.98;;;11.20;99.90;;;;;;5045069;28;20386;-77
2022/09/14 04:46:41;;;;;;;11.88;7.95;;;11.30;99.90;;;;;;5039008;28;20021;-77
2022/09/14 04:49:07;;;;;;;13.73;9.20;;;11.30;99.90;;;;;;5043114;28;20028;-77
2022/09/14 04:51:34;;;;;;;12.73;9.20;;;11.20;99.90;;;;;;5044301;28;20083;-79
2022/09/14 04:54:01;;;;;;;12.80;8.82;;;11.20;99.90;;;;;;5052313;28;20044;-76
2022/09/14 04:56:30;;;;;;;16.55;13.38;;;11.20;99.90;;;;;;5052023;28;20029;-79
2022/09/14 04:58:57;;;;;;;22.58;15.30;;;11.20;99.90;;;;;;5052301;28;20045;-79
2022/09/14 05:01:27;;;;;;;24.45;18.00;;;11.20;99.90;;;;;;5051351;28;20497;-77
2022/09/14 05:03:53;;;;;;;21.45;14.63;;;11.20;99.90;;;;;;5051149;28;20022;-77
2022/09/14 05:06:24;;;;;;;17.23;11.57;;;11.30;99.90;;;;;;5051061;28;20059;-78
2022/09/14 05:08:50;;;;;;;12.40;10.52;;;11.30;99.90;;;;;;5048980;28;20026;-77
2022/09/14 05:11:19;;;;;;;12.88;11.00;;;11.30;99.90;;;;;;5044872;28;20021;-77
2022/09/14 05:13:45;;;;;;;14.98;11.93;;;11.30;99.90;;;;;;5053349;28;20048;-77
2022/09/14 05:16:23;;;;;;;12.85;10.25;;;11.30;99.90;;;;;;5052318;28;20508;-76
2022/09/14 05:18:50;;;;;;;10.43;9.10;;;11.30;99.90;;;;;;5050924;28;20044;-77
2022/09/14 05:21:18;;;;;;;14.43;11.75;;;11.40;99.90;;;;;;5050662;28;20046;-76
2022/09/14 05:23:45;;;;;;;12.85;9.98;;;11.40;99.90;;;;;;5050600;28;20474;-76
2022/09/14 05:26:11;;;;;;;12.48;9.80;;;11.50;99.90;;;;;;5047951;28;20034;-79
2022/09/14 05:28:37;;;;;;;12.15;9.70;;;11.60;99.90;;;;;;5045174;28;20144;-76
2022/09/14 05:31:05;;;;;;;18.65;11.02;;;11.70;99.90;;;;;;5046776;28;20481;-79
2022/09/14 05:33:32;;;;;;;13.93;9.23;;;11.70;99.90;;;;;;5037136;28;20045;-76
2022/09/14 05:36:05;;;;;;;16.58;13.32;;;11.70;99.90;;;;;;5030968;28;20026;-76
2022/09/14 05:38:33;;;;;;;16.83;11.18;;;11.80;99.90;;;;;;5048844;28;20032;-77
2022/09/14 05:40:58;;;;;;;14.25;9.73;;;12.00;99.90;;;;;;5050790;28;20025;-80
2022/09/14 05:43:24;;;;;;;12.90;9.82;;;12.20;99.90;;;;;;5051901;28;20032;-77
2022/09/14 05:45:50;;;;;;;13.90;11.77;;;12.30;99.90;;;;;;5050491;28;20030;-79
2022/09/14 05:48:16;;;;;;;17.90;13.23;;;12.40;99.90;;;;;;5032860;28;20070;-79
2022/09/14 05:50:42;;;;;;;16.55;11.23;;;12.50;99.90;;;;;;5030686;28;20026;-80
2022/09/14 05:53:08;;;;;;;18.35;10.15;;;12.70;99.90;;;;;;5031766;28;20037;-76
2022/09/14 05:55:33;;;;;;;16.30;9.45;;;12.90;99.90;;;;;;5030683;28;20125;-77
2022/09/14 05:57:59;;;;;;;13.98;9.88;;;13.10;99.90;;;;;;5030534;28;20025;-79
2022/09/14 06:00:24;;;;;;;12.13;10.20;;;13.30;99.90;;;;;;5031873;28;20099;-79
2022/09/14 06:02:52;;;;;;;15.10;11.07;;;13.50;99.90;;;;;;5037489;28;20144;-78
2022/09/14 06:05:19;;;;;;;15.35;11.02;;;13.60;99.90;;;;;;5049808;28;20025;-76
2022/09/14 06:07:49;;;;;;;13.55;8.55;;;13.80;99.90;;;;;;5049025;28;20501;-79
2022/09/14 06:10:14;;;;;;;12.52;9.60;;;14.10;99.90;;;;;;5050694;28;20036;-76
2022/09/14 06:12:40;;;;;;;13.10;8.23;;;14.30;99.90;;;;;;5050691;28;20025;-76
2022/09/14 06:15:06;;;;;;;11.38;8.88;;;14.60;99.90;;;;;;5049440;28;20025;-78
2022/09/14 06:17:31;;;;;;;10.43;7.68;;;14.90;99.90;;;;;;5049426;28;20471;-79
2022/09/14 06:19:57;;;;;;;11.10;7.90;;;15.10;99.90;;;;;;5049201;28;20032;-80
2022/09/14 06:22:23;;;;;;;18.35;7.63;;;15.20;99.90;;;;;;5035481;28;20074;-80
2022/09/14 06:24:48;;;;;;;13.38;9.18;;;15.20;99.90;;;;;;5034350;28;20028;-76
2022/09/14 06:27:14;;;;;;;11.43;7.43;;;15.30;99.90;;;;;;5031235;28;20101;-79
2022/09/14 06:29:40;;;;;;;9.57;7.63;;;15.40;99.90;;;;;;5034874;28;20025;-76
2022/09/14 06:32:06;;;;;;;11.48;7.82;;;15.50;99.90;;;;;;5037804;28;20478;-79
2022/09/14 06:34:32;;;;;;;12.57;7.35;;;15.70;99.90;;;;;;5049626;28;20037;-76
2022/09/14 06:36:57;;;;;;;11.70;7.43;;;15.70;99.90;;;;;;5051363;28;20032;-77
2022/09/14 06:39:23;;;;;;;10.77;7.30;;;15.90;99.90;;;;;;5049895;28;20021;-79
2022/09/14 06:41:50;;;;;;;10.23;7.00;;;16.00;99.90;;;;;;5049772;28;20041;-77
2022/09/14 06:44:16;;;;;;;13.13;7.22;;;16.10;99.90;;;;;;5050769;28;20112;-80
2022/09/14 06:46:42;;;;;;;8.98;6.97;;;16.30;99.90;;;;;;5044745;28;20104;-77
2022/09/14 06:49:12;;;;;;;8.55;7.03;;;16.50;99.90;;;;;;5029700;28;20040;-80
2022/09/14 06:51:43;;;;;;;12.50;8.43;;;16.80;99.90;;;;;;5029760;28;20487;-80
2022/09/14 06:54:11;;;;;;;9.80;7.40;;;16.90;99.90;;;;;;5030620;28;20406;-77
2022/09/14 06:56:40;;;;;;;9.57;6.75;;;17.00;99.90;;;;;;5029498;28;20364;-76
2022/09/14 06:59:07;;;;;;;10.68;6.90;;;17.10;99.90;;;;;;5029379;28;20030;-78
2022/09/14 07:01:33;;;;;;;11.73;8.32;;;17.30;99.90;;;;;;5028941;28;20036;-77
2022/09/14 07:04:00;;;;;;;13.43;8.52;;;17.40;99.90;;;;;;5029826;28;20029;-78
2022/09/14 07:06:28;;;;;;;10.48;7.57;;;17.40;99.90;;;;;;5030507;28;20049;-78
2022/09/14 07:08:54;;;;;;;10.07;7.25;;;17.50;99.90;;;;;;5029257;28;20451;-78
2022/09/14 07:11:24;;;;;;;11.68;7.75;;;17.60;99.90;;;;;;5030049;28;20490;-78
2022/09/14 07:13:51;;;;;;;11.52;8.30;;;17.60;99.90;;;;;;5029985;28;20033;-80
2022/09/14 07:16:17;;;;;;;14.25;6.57;;;17.70;99.90;;;;;;5030723;28;20073;-78
2022/09/14 07:18:43;;;;;;;11.32;7.35;;;17.80;99.90;;;;;;5029359;28;20025;-78
2022/09/14 07:21:15;;;;;;;11.65;8.23;;;17.90;99.90;;;;;;5029429;28;20021;-78
2022/09/14 07:23:44;;;;;;;32.88;24.63;;;17.90;99.90;;;;;;5030528;28;20071;-77
2022/09/14 07:26:15;;;;;;;38.15;28.33;;;18.10;99.90;;;;;;5029096;28;20062;-77
2022/09/14 07:28:42;;;;;;;16.98;10.70;;;18.20;99.90;;;;;;5029331;28;20382;-81
2022/09/14 07:31:24;;;;;;;14.02;9.57;;;18.30;99.90;;;;;;5030736;28;20060;-81
2022/09/14 07:33:55;;;;;;;13.05;7.72;;;18.30;99.90;;;;;;5050268;28;20149;-78
2022/09/14 07:36:24;;;;;;;12.05;8.60;;;18.30;99.90;;;;;;5050324;28;20120;-79
2022/09/14 07:38:51;;;;;;;9.80;7.82;;;18.40;99.90;;;;;;5049094;28;20109;-78
2022/09/14 07:41:17;;;;;;;9.13;8.23;;;18.40;99.90;;;;;;5049144;28;20386;-78
2022/09/14 07:43:42;;;;;;;13.35;8.13;;;18.40;99.90;;;;;;5048722;28;20025;-78
2022/09/14 07:46:08;;;;;;;11.93;8.98;;;18.50;99.90;;;;;;5048005;28;20130;-81
2022/09/14 07:48:35;;;;;;;13.10;9.82;;;18.50;99.90;;;;;;5029909;28;20025;-78
2022/09/14 07:51:00;;;;;;;11.20;8.18;;;18.50;99.90;;;;;;5028815;28;20045;-78
2022/09/14 07:53:26;;;;;;;11.88;9.07;;;18.40;99.90;;;;;;5028805;28;20144;-78
2022/09/14 07:55:52;;;;;;;12.20;8.98;;;18.40;99.90;;;;;;5028756;28;20461;-78
2022/09/14 07:58:17;;;;;;;11.18;8.20;;;18.50;99.90;;;;;;5028517;28;20017;-80
2022/09/14 08:00:43;;;;;;;17.42;9.05;;;18.50;99.90;;;;;;5030012;28;20029;-78
2022/09/14 08:03:09;;;;;;;11.13;8.40;;;18.60;99.90;;;;;;5029887;28;20026;-80
2022/09/14 08:05:34;;;;;;;11.98;9.15;;;18.60;99.90;;;;;;5029682;28;20029;-80
2022/09/14 08:08:00;;;;;;;15.65;8.88;;;18.60;99.90;;;;;;5029853;28;20040;-78
2022/09/14 08:10:26;;;;;;;15.75;9.25;;;18.50;99.90;;;;;;5028525;28;20059;-80
2022/09/14 08:12:53;;;;;;;16.90;8.75;;;18.60;99.90;;;;;;5029789;28;20077;-80
2022/09/14 08:15:20;;;;;;;11.52;8.02;;;18.60;99.90;;;;;;5029763;28;20033;-78
2022/09/14 08:17:46;;;;;;;15.05;9.32;;;18.60;99.90;;;;;;5028571;28;20028;-78
2022/09/14 08:20:12;;;;;;;10.23;7.78;;;18.60;99.90;;;;;;5029581;28;20029;-78
2022/09/14 08:22:38;;;;;;;14.95;8.90;;;18.60;99.90;;;;;;5028549;28;20033;-80
2022/09/14 08:25:04;;;;;;;14.85;7.90;;;18.70;99.90;;;;;;5029824;28;20078;-78
2022/09/14 08:27:30;;;;;;;15.95;9.05;;;18.70;99.90;;;;;;5033182;28;20509;-79
2022/09/14 08:29:55;;;;;;;12.07;8.25;;;18.80;99.90;;;;;;5033399;28;20033;-80
2022/09/14 08:32:21;;;;;;;14.55;8.63;;;18.90;99.90;;;;;;5042080;28;20033;-80
2022/09/14 08:34:47;;;;;;;10.15;7.90;;;18.90;99.90;;;;;;5052221;28;20082;-81
2022/09/14 08:37:13;;;;;;;12.25;8.77;;;18.90;99.90;;;;;;5051135;28;20084;-81
2022/09/14 08:39:39;;;;;;;14.00;8.15;;;18.90;99.90;;;;;;5050893;28;20029;-78
2022/09/14 08:42:14;;;;;;;10.30;8.35;;;19.00;99.90;;;;;;5050782;28;20530;-78
2022/09/14 08:44:47;;;;;;;13.05;7.82;;;19.10;99.90;;;;;;5052540;28;20024;-80
2022/09/14 08:47:25;;;;;;;11.95;8.57;;;19.20;99.90;;;;;;5040479;28;20021;-81
2022/09/14 08:50:08;;;;;;;10.80;8.00;;;19.40;99.90;;;;;;5033132;28;20061;-78
2022/09/14 08:52:38;;;;;;;9.70;7.88;;;19.50;99.90;;;;;;5032521;28;20021;-80
2022/09/14 08:55:34;;;;;;;11.85;8.30;;;19.60;99.90;;;;;;5032897;28;20112;-80
2022/09/14 08:58:09;;;;;;;10.23;8.02;;;19.70;99.90;;;;;;5031742;28;20067;-78
2022/09/14 09:00:48;;;;;;;11.77;9.32;;;19.80;99.90;;;;;;5032945;28;20414;-80
2022/09/14 09:03:23;;;;;;;11.15;8.98;;;20.00;99.90;;;;;;5032953;28;20018;-80
2022/09/14 09:06:06;;;;;;;11.75;8.10;;;19.80;99.90;;;;;;5031514;28;20026;-79
2022/09/14 09:08:31;;;;;;;;;;;19.80;99.90;;;;;;5033211;28;20355;-78
2022/09/14 09:11:00;;;;;;;11.57;8.25;;;19.90;99.90;;;;;;5032679;28;19912;-80
2022/09/14 09:13:30;;;;;;;12.30;9.38;;;19.90;99.90;;;;;;5045344;28;20505;-78
2022/09/14 09:16:02;;;;;;;12.30;8.93;;;20.00;99.90;;;;;;5050956;28;20680;-78
2022/09/14 09:18:33;;;;;;;;;;;20.20;99.90;;;;;;5052502;28;20481;-78
2022/09/14 09:21:38;;;;;;;15.13;9.32;;;20.20;99.90;;;;;;5052081;28;20342;-79
2022/09/14 09:24:16;;;;;;;11.48;9.20;;;20.10;99.90;;;;;;5051019;28;20017;-79
2022/09/14 09:26:42;;;;;;;12.70;8.98;;;20.20;99.90;;;;;;5052214;28;20032;-79
2022/09/14 09:29:08;;;;;;;11.80;8.52;;;20.10;99.90;;;;;;5050737;28;20017;-80
2022/09/14 09:31:43;;;;;;;13.00;9.32;;;20.10;99.90;;;;;;5046103;28;20029;-79
2022/09/14 09:34:12;;;;;;;14.90;9.73;;;20.20;99.90;;;;;;5031969;28;20033;-80
2022/09/14 09:36:42;;;;;;;18.17;10.10;;;20.20;99.90;;;;;;5031795;28;20490;-80
2022/09/14 09:39:08;;;;;;;16.38;12.45;;;20.40;99.90;;;;;;5031876;28;20024;-79
2022/09/14 09:41:41;;;;;;;21.42;12.38;;;20.50;99.90;;;;;;5032241;28;20112;-79
2022/09/14 09:44:09;;;;;;;16.95;12.45;;;20.70;99.90;;;;;;5031886;28;20105;-80
2022/09/14 09:46:39;;;;;;;21.25;12.60;;;20.80;99.90;;;;;;5043949;28;20021;-77
2022/09/14 09:49:17;;;;;;;18.42;12.57;;;20.90;99.90;;;;;;5050685;27;20017;-79
2022/09/14 09:51:43;;;;;;;19.08;12.20;;;21.10;99.90;;;;;;5050805;28;20470;-78
2022/09/14 09:54:12;;;;;;;15.23;11.57;;;21.10;99.90;;;;;;5031836;28;20513;-78
2022/09/14 09:56:55;;;;;;;17.20;11.18;;;21.40;99.90;;;;;;5030391;28;20028;-79
2022/09/14 09:59:43;;;;;;;23.05;11.27;;;21.50;99.30;;;;;;5032029;28;20049;-79
2022/09/14 10:02:28;;;;;;;19.48;12.95;;;21.70;95.20;;;;;;5030731;28;20367;-79
2022/09/14 10:04:57;;;;;;;15.20;10.55;;;21.70;97.20;;;;;;5031598;28;20053;-79
2022/09/14 10:07:23;;;;;;;14.00;9.00;;;21.70;96.30;;;;;;5031808;28;20105;-79
2022/09/14 10:10:03;;;;;;;9.52;7.57;;;21.60;95.70;;;;;;5031578;28;20078;-79
2022/09/14 10:12:30;;;;;;;11.70;7.47;;;21.90;94.70;;;;;;5030447;28;20032;-79
2022/09/14 10:15:10;;;;;;;10.00;7.45;;;21.60;88.60;;;;;;5030094;28;20049;-79
2022/09/14 10:17:36;;;;;;;9.65;7.00;;;21.40;91.80;;;;;;5030167;28;20049;-79
2022/09/14 10:20:03;;;;;;;9.07;6.57;;;21.40;96.10;;;;;;5030037;28;20105;-78
2022/09/14 10:22:38;;;;;;;9.15;6.10;;;21.20;96.80;;;;;;5029963;28;20455;-79
2022/09/14 10:25:13;;;;;;;7.38;6.15;;;21.20;93.70;;;;;;5031313;27;20021;-79
2022/09/14 10:28:19;;;;;;;6.80;5.45;;;21.20;95.20;;;;;;5030030;28;20070;-78
2022/09/14 10:31:07;;;;;;;7.93;6.38;;;21.30;99.90;;;;;;5030188;28;20060;-79
2022/09/14 10:33:34;;;;;;;7.90;5.53;;;21.30;98.50;;;;;;5031143;28;20140;-78
2022/09/14 10:36:28;;;;;;;6.72;5.30;;;21.40;94.30;;;;;;5030257;28;20028;-78
2022/09/14 10:39:19;;;;;;;5.43;4.90;;;21.20;90.00;;;;;;5031110;28;20025;-79
2022/09/14 10:42:10;;;;;;;6.03;5.30;;;21.30;91.20;;;;;;5029939;28;20057;-79
2022/09/14 10:45:06;;;;;;;6.50;5.90;;;21.40;89.00;;;;;;5031132;28;20052;-79
2022/09/14 10:47:51;;;;;;;8.70;5.82;;;21.60;89.20;;;;;;5044033;28;20028;-79
2022/09/14 10:50:44;;;;;;;8.75;5.47;;;21.70;90.00;;;;;;5049015;28;20035;-77
2022/09/14 10:53:16;;;;;;;7.63;5.82;;;21.80;88.60;;;;;;5050831;28;20037;-78
2022/09/14 10:56:03;;;;;;;7.50;5.03;;;21.70;88.70;;;;;;5049653;28;20052;-78
2022/09/14 10:58:54;;;;;;;6.22;4.32;;;21.60;90.80;;;;;;5050370;28;20386;-78
2022/09/14 11:01:46;;;;;;;6.90;5.10;;;21.50;89.50;;;;;;5050758;28;20025;-78
2022/09/14 11:04:31;;;;;;;;;;;21.50;90.30;;;;;;5050953;28;20423;-79
2022/09/14 11:07:02;;;;;;;6.82;4.55;;;21.60;89.10;;;;;;5050600;28;20008;-79
2022/09/14 11:09:37;;;;;;;6.28;4.60;;;21.70;91.50;;;;;;5050613;28;20029;-79
2022/09/14 11:12:03;;;;;;;6.13;4.63;;;21.80;92.00;;;;;;5050478;28;20029;-79
2022/09/14 11:14:41;;;;;;;6.85;5.10;;;21.80;90.00;;;;;;5049086;28;20092;-79
2022/09/14 11:17:22;;;;;;;6.13;5.13;;;21.80;90.50;;;;;;5049130;28;20032;-79
2022/09/14 11:19:55;;;;;;;6.80;5.22;;;21.80;90.90;;;;;;5049160;28;20021;-80
2022/09/14 11:22:39;;;;;;;6.18;5.03;;;21.60;90.80;;;;;;5048964;28;20029;-79
2022/09/14 11:25:13;;;;;;;6.70;4.68;;;21.50;92.60;;;;;;5050384;28;20025;-78
2022/09/14 11:27:55;;;;;;;7.45;4.70;;;21.30;92.40;;;;;;5050227;28;20069;-78
2022/09/14 11:30:35;;;;;;;6.28;4.75;;;21.40;95.50;;;;;;5050221;28;20033;-79
2022/09/14 11:33:24;;;;;;;5.55;5.05;;;21.30;96.30;;;;;;5031521;28;20097;-78
2022/09/14 11:35:55;;;;;;;6.50;5.72;;;21.40;98.70;;;;;;5030234;28;20105;-78
2022/09/14 11:38:28;;;;;;;9.65;6.07;;;21.40;96.40;;;;;;5030179;28;20018;-78
2022/09/14 11:41:25;;;;;;;7.78;5.32;;;21.30;96.50;;;;;;5029182;28;20065;-79
2022/09/14 11:44:10;;;;;;;5.25;4.65;;;21.20;96.20;;;;;;5028531;28;20034;-77
2022/09/14 11:46:46;;;;;;;7.57;5.30;;;21.20;99.90;;;;;;5036090;28;20013;-78
2022/09/14 11:49:38;;;;;;;8.48;4.95;;;21.20;98.50;;;;;;5048666;28;20138;-77
2022/09/14 11:52:15;;;;;;;7.22;5.60;;;20.90;97.90;;;;;;5037733;28;20060;-79
2022/09/14 11:54:41;;;;;;;9.73;6.50;;;20.90;99.90;;;;;;5029392;28;20045;-79
2022/09/14 11:57:12;;;;;;;9.25;5.68;;;20.90;99.90;;;;;;5029537;28;20040;-79
2022/09/14 11:59:42;;;;;;;8.20;6.10;;;20.80;99.90;;;;;;5029658;28;20049;-78
2022/09/14 12:02:46;;;;;;;6.10;5.03;;;20.60;99.90;;;;;;5030434;28;20368;-78
2022/09/14 12:05:12;;;;;;;5.68;5.05;;;20.50;99.90;;;;;;5032429;28;20017;-79
2022/09/14 12:07:41;;;;;;;5.28;4.78;;;20.40;99.90;;;;;;5032183;28;20451;-79
2022/09/14 12:10:28;;;;;;;6.30;4.90;;;20.50;99.90;;;;;;5038610;28;20383;-78
2022/09/14 12:13:17;;;;;;;5.72;5.18;;;20.40;99.90;;;;;;5050757;28;20025;-79
2022/09/14 12:15:43;;;;;;;6.82;5.45;;;20.30;99.90;;;;;;5050849;27;20025;-79
2022/09/14 12:18:09;;;;;;;6.22;5.63;;;20.20;99.90;;;;;;5050443;28;20089;-80
2022/09/14 12:20:41;;;;;;;7.72;4.65;;;20.20;99.90;;;;;;5050288;27;20024;-80
2022/09/14 12:23:27;;;;;;;;;;;19.90;99.90;;;;;;5052474;28;20035;-80
2022/09/14 12:26:05;;;;;;;7.25;5.28;;;19.90;99.90;;;;;;5051924;28;19951;-80
2022/09/14 12:28:33;;;;;;;6.30;4.68;;;19.80;99.90;;;;;;5051340;28;20086;-81
2022/09/14 12:30:59;;;;;;;7.30;4.65;;;19.80;99.90;;;;;;5049897;27;20030;-77
2022/09/14 12:33:33;;;;;;;5.13;4.63;;;19.60;99.90;;;;;;5037649;28;20470;-77
2022/09/14 12:36:31;;;;;;;7.70;5.15;;;19.40;99.90;;;;;;5042837;27;20039;-77
2022/09/14 12:38:56;;;;;;;5.13;4.50;;;19.30;99.90;;;;;;5050565;28;20044;-77
2022/09/14 12:41:22;;;;;;;6.38;4.57;;;19.10;99.90;;;;;;5051711;27;20128;-77
2022/09/14 12:43:48;;;;;;;6.15;4.47;;;19.10;99.90;;;;;;5051176;28;20021;-77
2022/09/14 12:46:20;;;;;;;7.22;4.18;;;19.00;99.90;;;;;;5051712;27;20571;-78
2022/09/14 12:48:49;;;;;;;6.68;4.43;;;18.90;99.90;;;;;;5046288;28;20034;-78
2022/09/14 12:51:35;;;;;;;6.00;5.43;;;18.70;99.90;;;;;;5050419;27;20033;-78
2022/09/14 12:54:23;;;;;;;5.80;5.00;;;18.70;99.90;;;;;;5051716;28;20055;-77
2022/09/14 12:56:57;;;;;;;5.68;5.05;;;18.60;99.90;;;;;;5049803;28;20061;-78
2022/09/14 12:59:32;;;;;;;7.22;4.35;;;18.60;99.90;;;;;;5050034;28;20053;-77
2022/09/14 13:02:22;;;;;;;5.03;4.53;;;18.40;99.90;;;;;;5050215;28;20068;-78